Time;durP1;ratioP1;P1;durP2;ratioP2;P2;SDS_P1;SDS_P2;PMS_P1;PMS_P2;Temp;Humidity;BMP_temperature;BMP_pressure;BME280_temperature;BME280_humidity;BME280_pressure;Samples;Min_cycle;Max_cycle;Signal;HPM_P1;HPM_P2
2023/04/28 00:00:41;;;;;;;13.60;8.32;;;;;;;8.50;67.30;101308.41;5032522;28;20123;-81
2023/04/28 00:03:06;;;;;;;13.10;8.27;;;;;;;8.67;67.13;101339.34;5032256;28;20512;-81
2023/04/28 00:05:32;;;;;;;13.60;8.52;;;;;;;8.74;67.54;101350.19;5032316;28;20059;-81
2023/04/28 00:07:57;;;;;;;11.20;8.32;;;;;;;8.44;66.42;101294.06;5031842;28;20107;-81
2023/04/28 00:10:23;;;;;;;14.05;8.80;;;;;;;8.68;67.92;101338.44;5032506;28;20469;-83
2023/04/28 00:12:48;;;;;;;12.68;8.57;;;;;;;8.67;68.33;101334.19;5032195;28;20156;-82
2023/04/28 00:15:14;;;;;;;13.13;8.88;;;;;;;8.58;69.66;101321.75;5032536;28;20377;-83
2023/04/28 00:17:39;;;;;;;15.55;8.55;;;;;;;8.48;69.33;101307.66;5032312;28;20056;-81
2023/04/28 00:20:05;;;;;;;14.95;9.13;;;;;;;8.60;69.48;101333.63;5017193;28;20543;-81
2023/04/28 00:22:30;;;;;;;13.25;8.77;;;;;;;8.57;69.73;101328.66;5035861;28;20108;-83
2023/04/28 00:24:56;;;;;;;15.18;9.32;;;;;;;8.60;70.85;101343.94;5036154;28;20113;-83
2023/04/28 00:27:21;;;;;;;14.15;8.98;;;;;;;8.60;69.96;101336.22;5036164;28;20132;-80
2023/04/28 00:29:46;;;;;;;15.52;10.02;;;;;;;8.59;71.65;101329.41;5036314;28;20056;-81
2023/04/28 00:32:12;;;;;;;14.88;9.13;;;;;;;8.56;71.87;101311.53;5036128;28;20517;-80
2023/04/28 00:34:37;;;;;;;15.75;10.10;;;;;;;8.39;74.22;101282.34;5035972;28;20484;-81
2023/04/28 00:37:03;;;;;;;17.63;9.32;;;;;;;8.52;72.83;101307.41;5035511;28;20436;-81
2023/04/28 00:39:29;;;;;;;15.00;9.65;;;;;;;8.46;74.27;101307.72;5035567;28;20465;-84
2023/04/28 00:41:54;;;;;;;17.70;9.82;;;;;;;8.17;74.91;101257.56;5036033;28;20026;-83
2023/04/28 00:44:20;;;;;;;14.95;9.40;;;;;;;8.38;78.53;101299.53;5035673;28;20132;-83
2023/04/28 00:46:46;;;;;;;18.48;9.73;;;;;;;7.97;75.74;101237.06;5035575;28;20045;-83
2023/04/28 00:49:12;;;;;;;16.45;10.38;;;;;;;8.24;76.24;101289.81;5017577;28;20037;-82
2023/04/28 00:51:37;;;;;;;15.63;9.77;;;;;;;8.23;76.49;101301.00;5035406;28;20080;-82
2023/04/28 00:54:04;;;;;;;16.73;10.98;;;;;;;8.17;78.72;101298.72;5035500;28;20034;-82
2023/04/28 00:56:30;;;;;;;16.08;9.13;;;;;;;8.12;77.92;101298.09;5035811;28;20021;-82
2023/04/28 00:58:56;;;;;;;14.50;9.80;;;;;;;8.07;82.34;101282.03;5035631;28;20044;-82
2023/04/28 01:01:22;;;;;;;16.23;9.63;;;;;;;7.83;80.22;101234.28;5035568;28;20045;-82
2023/04/28 01:03:48;;;;;;;17.08;9.55;;;;;;;7.83;80.00;101244.56;5035275;28;20405;-82
2023/04/28 01:06:15;;;;;;;15.48;10.18;;;;;;;7.81;79.89;101236.91;5035327;28;20029;-83
2023/04/28 01:08:41;;;;;;;15.43;9.73;;;;;;;8.00;80.62;101271.19;5035173;28;20025;-82
2023/04/28 01:11:09;;;;;;;14.32;9.48;;;;;;;7.94;79.71;101266.31;5035378;28;20033;-81
2023/04/28 01:13:34;;;;;;;14.70;10.43;;;;;;;7.96;79.29;101271.38;5035291;28;20026;-81
2023/04/28 01:16:00;;;;;;;17.83;9.95;;;;;;;7.94;79.81;101265.47;5035284;28;20052;-83
2023/04/28 01:18:25;;;;;;;14.18;9.55;;;;;;;7.92;80.61;101262.16;5035250;28;20029;-82
2023/04/28 01:20:51;;;;;;;15.88;9.90;;;;;;;7.44;82.00;101169.16;5034909;28;20025;-82
2023/04/28 01:23:17;;;;;;;14.93;9.45;;;;;;;7.87;81.29;101228.13;5034984;28;20032;-83
2023/04/28 01:25:43;;;;;;;16.40;11.27;;;;;;;7.95;84.08;101236.28;5034910;28;20047;-82
2023/04/28 01:28:09;;;;;;;16.55;10.63;;;;;;;7.80;83.10;101201.00;5035131;28;20053;-82
2023/04/28 01:30:35;;;;;;;14.82;10.15;;;;;;;7.95;81.30;101231.16;5034727;28;20032;-83
2023/04/28 01:33:01;;;;;;;18.13;11.57;;;;;;;7.86;83.19;101232.38;5034950;28;20533;-83
2023/04/28 01:35:26;;;;;;;13.82;10.02;;;;;;;7.87;81.30;101233.25;5034973;28;20068;-83
2023/04/28 01:37:52;;;;;;;14.45;9.10;;;;;;;7.75;80.67;101221.75;5034874;28;20025;-83
2023/04/28 01:40:17;;;;;;;15.50;10.38;;;;;;;7.54;82.06;101187.56;5034703;28;20017;-83
2023/04/28 01:42:42;;;;;;;18.98;10.23;;;;;;;7.63;81.75;101205.16;5035164;28;20026;-83
2023/04/28 01:45:08;;;;;;;16.63;10.40;;;;;;;7.82;82.22;101219.75;5034838;28;20401;-82
2023/04/28 01:47:34;;;;;;;17.23;10.00;;;;;;;7.52;82.45;101173.13;5034449;28;20088;-82
2023/04/28 01:50:00;;;;;;;15.05;10.20;;;;;;;7.58;81.40;101178.84;5034702;28;20031;-82
2023/04/28 01:52:26;;;;;;;15.45;10.23;;;;;;;7.58;81.98;101178.84;5016927;28;20033;-82
2023/04/28 01:54:52;;;;;;;17.67;10.20;;;;;;;7.37;81.47;101138.66;5034412;28;20079;-84
2023/04/28 01:57:17;;;;;;;15.98;10.57;;;;;;;7.34;81.81;101120.81;5034416;28;20025;-82
2023/04/28 01:59:43;;;;;;;15.95;10.20;;;;;;;7.60;81.16;101159.03;5034341;28;20029;-82
2023/04/28 02:02:08;;;;;;;14.50;10.73;;;;;;;7.85;81.62;101201.59;5204254;23;20050;-82
2023/04/28 02:04:33;;;;;;;19.65;10.43;;;;;;;7.72;83.01;101173.06;5034462;28;20025;-82
2023/04/28 02:06:59;;;;;;;17.73;10.15;;;;;;;7.55;82.75;101155.81;5016184;28;20034;-81
2023/04/28 02:09:24;;;;;;;16.23;10.07;;;;;;;7.74;82.91;101184.94;5033965;28;20339;-82
2023/04/28 02:11:50;;;;;;;15.80;10.77;;;;;;;7.90;85.01;101208.22;5034152;28;20036;-82
2023/04/28 02:14:15;;;;;;;16.15;10.15;;;;;;;7.92;83.83;101197.88;5034524;28;20034;-83
2023/04/28 02:16:41;;;;;;;17.42;11.13;;;;;;;7.84;85.25;101179.38;5034216;28;20409;-82
2023/04/28 02:19:06;;;;;;;16.77;10.88;;;;;;;7.79;85.32;101179.59;5034126;28;20436;-83
2023/04/28 02:21:32;;;;;;;16.25;10.68;;;;;;;7.74;85.36;101166.09;5033875;28;20021;-82
2023/04/28 02:23:57;;;;;;;16.67;10.27;;;;;;;7.89;84.74;101191.13;5033952;28;20469;-82
2023/04/28 02:26:23;;;;;;;14.32;10.07;;;;;;;7.91;85.07;101179.03;5033590;28;20021;-82
2023/04/28 02:28:48;;;;;;;18.20;11.13;;;;;;;7.73;85.16;101144.72;5034060;28;20140;-83
2023/04/28 02:31:14;;;;;;;17.42;11.02;;;;;;;7.81;84.85;101159.78;5033660;28;20444;-82
2023/04/28 02:33:41;;;;;;;16.20;11.00;;;;;;;7.44;84.98;101098.94;5033726;28;20039;-82
2023/04/28 02:36:07;;;;;;;17.45;11.40;;;;;;;7.69;85.46;101139.81;5033636;28;20473;-82
2023/04/28 02:38:33;;;;;;;16.58;11.52;;;;;;;7.45;86.02;101114.28;5033505;28;20083;-82
2023/04/28 02:41:07;;;;;;;17.52;11.57;;;;;;;7.41;86.58;101115.34;5032928;28;20410;-82
2023/04/28 02:43:33;;;;;;;22.63;12.88;;;;;;;7.61;86.51;101140.13;5033710;28;20087;-82
2023/04/28 02:45:59;;;;;;;16.10;10.85;;;;;;;7.39;87.24;101103.47;5033685;28;20405;-82
2023/04/28 02:48:25;;;;;;;16.67;11.70;;;;;;;7.59;87.48;101131.69;5033587;28;20255;-82
2023/04/28 02:50:51;;;;;;;18.35;12.20;;;;;;;7.53;87.49;101111.38;5033532;28;20103;-81
2023/04/28 02:53:18;;;;;;;16.92;11.38;;;;;;;7.44;88.46;101086.09;5033435;28;20032;-80
2023/04/28 02:55:43;;;;;;;19.90;11.68;;;;;;;7.61;89.15;101114.44;5033127;28;20540;-81
2023/04/28 02:58:09;;;;;;;17.88;10.85;;;;;;;7.62;88.73;101107.56;5033312;28;20129;-81
2023/04/28 03:00:34;;;;;;;19.13;12.18;;;;;;;7.62;88.69;101097.28;5033144;28;20025;-82
2023/04/28 03:03:00;;;;;;;19.98;12.48;;;;;;;7.69;88.83;101102.06;5015321;28;20040;-82
2023/04/28 03:05:26;;;;;;;17.98;13.10;;;;;;;7.68;88.88;101105.56;5033257;28;20480;-82
2023/04/28 03:07:51;;;;;;;20.35;11.43;;;;;;;7.76;88.91;101112.88;5032927;28;20120;-82
2023/04/28 03:10:16;;;;;;;18.40;12.30;;;;;;;7.79;89.55;101112.75;5033234;28;20156;-82
2023/04/28 03:12:42;;;;;;;19.65;11.77;;;;;;;7.83;89.77;101113.44;5032964;28;20059;-82
2023/04/28 03:15:07;;;;;;;18.52;12.25;;;;;;;7.85;89.55;101112.44;5033314;28;20048;-82
2023/04/28 03:17:35;;;;;;;20.48;12.30;;;;;;;7.62;89.58;101079.28;5033200;28;20366;-83
2023/04/28 03:20:01;;;;;;;17.45;12.32;;;;;;;7.89;90.25;101113.16;5032864;28;20087;-82
2023/04/28 03:22:27;;;;;;;19.20;12.88;;;;;;;7.68;90.41;101067.00;5032972;28;20440;-82
2023/04/28 03:24:52;;;;;;;20.90;12.90;;;;;;;7.69;90.37;101078.09;5032731;28;20108;-82
2023/04/28 03:27:17;;;;;;;22.50;13.23;;;;;;;7.91;90.65;101104.47;5032868;28;20036;-83
2023/04/28 03:29:43;;;;;;;19.08;12.32;;;;;;;7.89;90.43;101101.13;5032873;28;20037;-83
2023/04/28 03:32:08;;;;;;;18.00;12.25;;;;;;;7.78;90.46;101082.81;5033472;28;20063;-82
2023/04/28 03:34:33;;;;;;;18.98;13.15;;;;;;;7.76;90.99;101082.03;5032733;28;20067;-82
2023/04/28 03:36:59;;;;;;;17.83;12.75;;;;;;;7.87;91.40;101102.94;5032737;28;20036;-82
2023/04/28 03:39:24;;;;;;;19.65;13.02;;;;;;;7.92;91.58;101100.16;5032361;28;20084;-82
2023/04/28 03:41:49;;;;;;;20.27;14.00;;;;;;;7.91;92.81;101095.91;5032720;28;20025;-82
2023/04/28 03:44:15;;;;;;;20.52;13.70;;;;;;;7.93;92.72;101094.09;5032371;28;20029;-82
2023/04/28 03:46:40;;;;;;;20.67;13.35;;;;;;;7.88;92.88;101078.91;5032479;28;20069;-82
2023/04/28 03:49:05;;;;;;;20.40;13.82;;;;;;;7.90;92.81;101082.22;5015159;28;20061;-82
2023/04/28 03:51:31;;;;;;;22.60;13.85;;;;;;;7.53;92.92;101028.31;5032380;28;20380;-82
2023/04/28 03:53:57;;;;;;;19.00;13.50;;;;;;;7.97;93.47;101096.47;5032306;28;20037;-82
2023/04/28 03:56:22;;;;;;;20.85;13.43;;;;;;;7.70;94.30;101046.34;5032253;28;20025;-82
2023/04/28 03:58:48;;;;;;;20.88;14.27;;;;;;;7.69;93.95;101044.69;5032272;28;20064;-82
2023/04/28 04:01:13;;;;;;;21.90;14.70;;;;;;;8.02;94.52;101089.34;5032508;28;20045;-82
2023/04/28 04:03:38;;;;;;;22.05;14.82;;;;;;;8.02;94.79;101093.66;5032383;28;20072;-81
2023/04/28 04:06:04;;;;;;;21.35;14.55;;;;;;;8.02;95.52;101080.81;5032386;28;20491;-81
2023/04/28 04:08:31;;;;;;;20.75;14.40;;;;;;;8.03;95.66;101078.16;5014209;28;20091;-82
2023/04/28 04:10:56;;;;;;;23.85;15.73;;;;;;;8.05;95.20;101075.50;5032419;28;20025;-82
2023/04/28 04:13:21;;;;;;;21.25;14.93;;;;;;;7.69;95.73;101019.81;5014580;28;20029;-82
2023/04/28 04:15:47;;;;;;;21.80;15.88;;;;;;;7.64;95.70;101003.78;5032150;28;20025;-82
2023/04/28 04:18:13;;;;;;;20.92;15.18;;;;;;;7.86;96.10;101036.16;5032110;28;20030;-82
2023/04/28 04:20:39;;;;;;;23.85;16.50;;;;;;;7.67;96.20;101008.78;5032249;28;20108;-82
2023/04/28 04:23:04;;;;;;;23.70;17.08;;;;;;;8.07;96.30;101062.59;5032065;28;20109;-82
2023/04/28 04:25:29;;;;;;;26.05;16.75;;;;;;;7.78;96.46;101000.56;5032281;28;20026;-82
2023/04/28 04:27:55;;;;;;;23.50;15.70;;;;;;;7.98;97.09;101040.72;5031967;28;20049;-82
2023/04/28 04:30:20;;;;;;;21.95;16.08;;;;;;;8.01;97.10;101046.53;5032126;28;20481;-81
2023/04/28 04:32:46;;;;;;;21.45;16.35;;;;;;;8.10;97.13;101063.25;5031956;28;20500;-81
2023/04/28 04:35:11;;;;;;;23.08;15.43;;;;;;;8.13;97.69;101059.69;5031826;28;20060;-82
2023/04/28 04:37:36;;;;;;;23.05;16.17;;;;;;;8.14;97.75;101063.94;5031909;28;20417;-82
2023/04/28 04:40:02;;;;;;;26.33;17.98;;;;;;;7.96;98.15;101039.94;5014214;28;20388;-82
2023/04/28 04:42:28;;;;;;;21.70;16.83;;;;;;;7.97;98.07;101027.03;5039242;23;20046;-82
2023/04/28 04:44:54;;;;;;;23.83;16.67;;;;;;;7.89;98.31;101007.75;5031957;28;20029;-82
2023/04/28 04:47:19;;;;;;;21.70;16.33;;;;;;;8.20;98.38;101054.19;5031896;28;20461;-81
2023/04/28 04:49:44;;;;;;;23.27;16.45;;;;;;;7.80;98.42;100979.91;5032108;28;20033;-82
2023/04/28 04:52:09;;;;;;;21.75;16.45;;;;;;;8.14;98.80;101031.31;5031956;28;20112;-82
2023/04/28 04:54:35;;;;;;;24.25;16.55;;;;;;;8.25;98.81;101039.34;5031935;28;20033;-82
2023/04/28 04:57:01;;;;;;;23.38;16.77;;;;;;;8.27;99.15;101039.28;5031807;28;20618;-82
2023/04/28 04:59:27;;;;;;;25.63;16.63;;;;;;;8.30;99.12;101039.13;5031906;28;20105;-82
2023/04/28 05:01:52;;;;;;;25.58;17.35;;;;;;;8.11;99.33;101010.91;5031873;28;20156;-82
2023/04/28 05:04:17;;;;;;;24.00;17.60;;;;;;;8.33;99.44;101038.97;5014398;28;20026;-82
2023/04/28 05:06:43;;;;;;;23.98;18.48;;;;;;;8.07;99.46;100991.41;5035305;28;20036;-82
2023/04/28 05:09:08;;;;;;;25.70;17.30;;;;;;;8.19;99.39;101007.97;5017581;28;20037;-82
2023/04/28 05:11:34;;;;;;;24.20;18.35;;;;;;;8.38;99.63;101031.88;5035241;28;20021;-83
2023/04/28 05:13:59;;;;;;;23.48;17.25;;;;;;;8.42;99.72;101023.09;5035400;28;20021;-83
2023/04/28 05:16:25;;;;;;;27.17;19.05;;;;;;;8.37;99.88;101004.50;5035270;28;20458;-82
2023/04/28 05:18:50;;;;;;;23.77;17.23;;;;;;;8.07;99.83;100936.56;5035138;28;20128;-82
2023/04/28 05:21:16;;;;;;;24.80;17.75;;;;;;;8.58;99.58;101002.56;5035234;28;20083;-83
2023/04/28 05:23:41;;;;;;;23.60;17.88;;;;;;;8.58;99.65;100985.38;5017023;28;20045;-83
2023/04/28 05:26:06;;;;;;;23.75;16.20;;;;;;;8.79;99.82;101011.72;5035013;28;20029;-83
2023/04/28 05:28:32;;;;;;;26.08;16.90;;;;;;;8.77;100.00;101016.13;5034781;28;20044;-84
2023/04/28 05:30:57;;;;;;;24.02;17.60;;;;;;;8.88;100.00;101008.69;5034780;28;20029;-84
2023/04/28 05:33:22;;;;;;;27.10;17.67;;;;;;;8.95;100.00;101010.91;5034937;28;20078;-84
2023/04/28 05:35:48;;;;;;;26.95;17.83;;;;;;;8.70;100.00;100971.03;5034928;28;20033;-84
2023/04/28 05:38:14;;;;;;;21.85;17.52;;;;;;;9.03;100.00;101019.91;5034864;28;20047;-84
2023/04/28 05:40:39;;;;;;;24.85;18.05;;;;;;;9.03;100.00;101025.03;5034596;28;20465;-85
2023/04/28 05:43:06;;;;;;;23.10;17.13;;;;;;;8.86;99.82;100978.78;5034422;28;20042;-85
2023/04/28 05:45:31;;;;;;;22.10;17.38;;;;;;;8.99;99.97;100984.94;5034626;28;20174;-83
2023/04/28 05:47:56;;;;;;;24.02;17.35;;;;;;;9.10;99.95;100986.91;5034549;28;20033;-83
2023/04/28 05:50:22;;;;;;;23.45;17.40;;;;;;;9.04;99.83;100972.59;5034580;28;20083;-83
2023/04/28 05:52:47;;;;;;;21.95;16.50;;;;;;;9.01;99.91;100957.34;5034627;28;20025;-84
2023/04/28 05:55:12;;;;;;;22.17;17.52;;;;;;;9.20;99.83;100977.78;5034345;28;20022;-84
2023/04/28 05:57:38;;;;;;;23.05;16.10;;;;;;;9.25;100.00;100980.94;5034549;28;20037;-84
2023/04/28 06:00:05;;;;;;;24.52;17.20;;;;;;;9.40;100.00;100994.72;5034167;28;20024;-82
2023/04/28 06:02:31;;;;;;;20.77;16.80;;;;;;;9.56;99.87;101021.31;5016914;28;20414;-85
2023/04/28 06:04:56;;;;;;;23.88;16.67;;;;;;;9.62;100.00;101020.13;5034151;28;20021;-84
2023/04/28 06:07:21;;;;;;;24.95;18.05;;;;;;;9.67;100.00;101005.25;5034444;28;20041;-84
2023/04/28 06:09:47;;;;;;;26.35;18.73;;;;;;;9.61;99.45;100975.47;5034159;28;20017;-85
2023/04/28 06:13:07;;;;;;;;;;;;;;;;;;;;;
2023/04/28 06:15:45;;;;;;;23.50;18.17;;;;;;;8.62;99.38;100823.88;4950252;28;20049;-85
2023/04/28 06:18:26;;;;;;;22.75;17.83;;;;;;;9.11;100.00;100900.97;4953815;28;20042;-85
2023/04/28 06:20:51;;;;;;;23.85;17.58;;;;;;;9.44;99.97;100924.88;4953706;28;20122;-86
2023/04/28 06:23:17;;;;;;;23.88;18.17;;;;;;;10.16;99.58;101005.84;4953683;28;20126;-85
2023/04/28 06:26:13;;;;;;;20.55;16.85;;;;;;;10.30;99.35;101017.97;4953216;28;20579;-85
2023/04/28 06:28:42;;;;;;;22.73;15.93;;;;;;;9.98;98.85;100943.22;4953132;28;20035;-85
2023/04/28 06:31:10;;;;;;;21.27;16.45;;;;;;;9.28;99.09;100808.13;4953521;28;20039;-81
2023/04/28 06:33:43;;;;;;;21.17;16.50;;;;;;;9.57;98.95;100857.16;4953365;28;20384;-82
2023/04/28 06:36:12;;;;;;;21.73;16.65;;;;;;;9.99;98.94;100934.56;4953387;28;20027;-85
2023/04/28 06:38:58;;;;;;;22.63;16.50;;;;;;;9.28;99.70;100835.63;4952346;28;20628;-84
2023/04/28 06:41:35;;;;;;;24.40;16.60;;;;;;;10.01;100.00;100943.03;4953207;28;20525;-80
2023/04/28 06:44:07;;;;;;;22.52;16.95;;;;;;;9.34;100.00;100836.13;4953193;28;20166;-85
2023/04/28 06:46:32;;;;;;;24.38;15.82;;;;;;;9.61;100.00;100874.09;4953349;28;20035;-84
2023/04/28 06:48:57;;;;;;;25.38;15.77;;;;;;;9.55;100.00;100877.03;4953391;28;20439;-84
2023/04/28 06:51:23;;;;;;;20.48;16.15;;;;;;;9.45;100.00;100858.69;4963613;28;20473;-83
2023/04/28 06:53:51;;;;;;;22.35;15.85;;;;;;;9.88;100.00;100926.63;5013790;28;20379;-81
2023/04/28 06:56:17;;;;;;;23.83;16.00;;;;;;;10.47;100.00;101004.06;5013273;28;20485;-79
2023/04/28 06:58:42;;;;;;;19.75;15.85;;;;;;;10.53;100.00;100988.22;5013661;28;20033;-82
2023/04/28 07:01:08;;;;;;;21.45;15.88;;;;;;;10.63;100.00;100969.50;5013297;28;20029;-82
2023/04/28 07:03:33;;;;;;;24.48;17.05;;;;;;;10.95;100.00;100986.50;5013379;28;20068;-83
2023/04/28 07:05:58;;;;;;;23.88;16.52;;;;;;;11.09;100.00;100989.06;5013239;28;20050;-83
2023/04/28 07:08:24;;;;;;;20.33;16.05;;;;;;;10.88;100.00;100932.63;5013373;28;20362;-86
2023/04/28 07:10:50;;;;;;;20.17;15.60;;;;;;;11.38;100.00;100997.56;5013249;28;20052;-83
2023/04/28 07:13:15;;;;;;;21.33;15.02;;;;;;;11.60;100.00;100994.41;5013072;28;20061;-82
2023/04/28 07:15:41;;;;;;;20.67;15.98;;;;;;;11.69;100.00;100986.06;5013266;28;20473;-84
2023/04/28 07:18:06;;;;;;;20.05;15.15;;;;;;;11.30;100.00;100940.34;5013223;28;20038;-83
2023/04/28 07:20:31;;;;;;;20.15;15.35;;;;;;;11.58;100.00;100986.75;4995680;28;20053;-83
2023/04/28 07:22:57;;;;;;;21.10;15.10;;;;;;;11.60;100.00;100979.75;4995660;28;20347;-84
2023/04/28 07:25:22;;;;;;;17.85;15.32;;;;;;;11.64;100.00;100976.03;4995693;28;20414;-84
2023/04/28 07:27:49;;;;;;;22.60;16.38;;;;;;;11.75;100.00;100980.50;5012367;28;20061;-83
2023/04/28 07:30:17;;;;;;;21.73;15.95;;;;;;;11.60;100.00;100950.44;5013173;28;20076;-83
2023/04/28 07:32:50;;;;;;;19.80;16.02;;;;;;;10.55;100.00;100752.22;5012975;28;20022;-83
2023/04/28 07:35:25;;;;;;;19.67;16.50;;;;;;;11.77;100.00;100927.72;5012893;28;20485;-84
2023/04/28 07:37:51;;;;;;;22.33;16.33;;;;;;;12.15;100.00;100990.84;4995273;28;20022;-84
2023/04/28 07:40:17;;;;;;;19.40;15.23;;;;;;;11.97;100.00;100960.06;5012795;28;20029;-83
2023/04/28 07:42:43;;;;;;;19.63;16.00;;;;;;;12.16;100.00;100995.09;5013034;28;20468;-83
2023/04/28 07:45:11;;;;;;;22.20;16.55;;;;;;;11.27;100.00;100873.34;5012803;28;20030;-83
2023/04/28 07:47:41;;;;;;;21.10;15.13;;;;;;;11.23;100.00;100885.63;5012867;28;20030;-82
2023/04/28 07:50:07;;;;;;;20.40;16.42;;;;;;;11.71;100.00;100986.81;5012728;28;20117;-84
2023/04/28 07:52:33;;;;;;;20.05;16.38;;;;;;;11.71;100.00;100981.66;5012780;28;20163;-86
2023/04/28 07:54:59;;;;;;;23.75;16.77;;;;;;;11.92;100.00;101003.56;5012672;28;20030;-81
2023/04/28 07:57:24;;;;;;;21.23;17.42;;;;;;;11.83;100.00;100977.47;5012504;28;20036;-79
2023/04/28 07:59:50;;;;;;;19.98;16.42;;;;;;;11.88;100.00;100976.22;5012777;28;20042;-87
2023/04/28 08:02:15;;;;;;;22.98;15.95;;;;;;;11.97;100.00;100969.59;5012948;28;20026;-86
2023/04/28 08:04:41;;;;;;;20.42;15.95;;;;;;;12.26;100.00;100993.53;5012714;28;20065;-86
2023/04/28 08:07:08;;;;;;;20.45;17.15;;;;;;;12.34;100.00;100999.84;5012575;28;20036;-86
2023/04/28 08:09:34;;;;;;;19.38;15.98;;;;;;;11.95;100.00;100938.66;4995205;28;20026;-87
2023/04/28 08:12:00;;;;;;;19.73;15.52;;;;;;;12.22;100.00;100987.75;5012156;28;20037;-83
2023/04/28 08:14:26;;;;;;;19.80;15.93;;;;;;;12.15;100.00;100993.44;5012945;28;20084;-81
2023/04/28 08:16:51;;;;;;;18.52;15.82;;;;;;;12.06;100.00;100971.56;5012727;28;20042;-83
2023/04/28 08:19:16;;;;;;;18.05;15.35;;;;;;;12.10;100.00;100962.69;5012354;28;20038;-83
2023/04/28 08:21:42;;;;;;;21.23;17.60;;;;;;;12.27;100.00;100993.44;5012557;28;20033;-82
2023/04/28 08:24:09;;;;;;;20.02;16.90;;;;;;;12.30;100.00;100985.47;5012362;28;20436;-81
2023/04/28 08:26:35;;;;;;;18.80;15.50;;;;;;;12.04;100.00;100927.69;5012381;28;20030;-82
2023/04/28 08:29:01;;;;;;;18.15;15.40;;;;;;;12.41;100.00;101005.47;5012452;28;20037;-84
2023/04/28 08:31:26;;;;;;;19.10;15.10;;;;;;;12.39;100.00;100993.53;5011268;28;20034;-82
2023/04/28 08:33:52;;;;;;;21.65;17.23;;;;;;;12.47;100.00;100997.25;5013063;28;20022;-82
2023/04/28 08:36:20;;;;;;;19.63;16.23;;;;;;;12.13;100.00;100923.66;5012434;28;20391;-87
2023/04/28 08:38:46;;;;;;;17.55;15.70;;;;;;;12.56;100.00;100998.41;5012022;28;20425;-90
2023/04/28 08:41:15;;;;;;;19.10;15.02;;;;;;;12.47;100.00;100996.44;4997815;28;20026;-85
2023/04/28 08:43:42;;;;;;;18.95;15.88;;;;;;;12.07;100.00;100944.75;5016188;28;20049;-86
2023/04/28 08:46:10;;;;;;;20.08;16.58;;;;;;;11.84;100.00;100912.66;5015960;28;20153;-86
2023/04/28 08:48:45;;;;;;;18.88;15.65;;;;;;;12.40;100.00;100996.03;4998240;28;20401;-85
2023/04/28 08:51:18;;;;;;;19.25;16.65;;;;;;;12.39;100.00;100990.94;5015987;28;20026;-87
2023/04/28 08:53:50;;;;;;;21.15;16.80;;;;;;;12.30;100.00;100961.34;5015868;28;20033;-85
2023/04/28 08:56:17;;;;;;;18.13;16.17;;;;;;;12.29;100.00;100944.13;5015771;28;20029;-85
2023/04/28 08:58:42;;;;;;;20.02;16.48;;;;;;;12.37;100.00;100967.75;5015705;28;20026;-79
2023/04/28 09:01:08;;;;;;;19.23;16.30;;;;;;;12.43;100.00;100998.41;5015336;28;20030;-81
2023/04/28 09:03:39;;;;;;;18.55;16.55;;;;;;;12.37;100.00;100985.03;5015588;28;20026;-78
2023/04/28 09:06:08;;;;;;;;;;;;;;;12.58;100.00;101007.72;5016195;28;20029;-79
2023/04/28 09:08:36;;;;;;;20.50;17.23;;;;;;;12.64;100.00;100999.53;5015420;28;19913;-78
2023/04/28 09:11:08;;;;;;;20.70;17.73;;;;;;;12.39;100.00;100955.53;5015260;28;20482;-79
2023/04/28 09:13:34;;;;;;;21.92;17.80;;;;;;;12.68;100.00;100989.78;5015425;28;20559;-78
2023/04/28 09:16:03;;;;;;;21.15;17.98;;;;;;;12.55;100.00;100968.25;5015261;28;20053;-77
2023/04/28 09:18:31;;;;;;;19.58;16.80;;;;;;;12.70;100.00;100985.34;5015394;28;20088;-79
2023/04/28 09:21:07;;;;;;;20.50;17.75;;;;;;;12.80;100.00;100995.91;5015205;28;20030;-78
2023/04/28 09:23:33;;;;;;;22.45;17.77;;;;;;;12.71;100.00;100955.06;5015385;28;20033;-77
2023/04/28 09:25:59;;;;;;;20.42;17.42;;;;;;;13.11;100.00;100992.81;5015108;28;20385;-77
2023/04/28 09:28:30;;;;;;;21.30;16.98;;;;;;;13.18;100.00;100993.19;5014967;28;20034;-79
2023/04/28 09:30:56;;;;;;;20.65;17.83;;;;;;;12.97;100.00;100971.38;5009413;28;20034;-77
2023/04/28 09:33:21;;;;;;;22.50;17.63;;;;;;;13.21;100.00;100993.00;5014864;28;20107;-76
2023/04/28 09:35:47;;;;;;;23.17;17.48;;;;;;;13.11;100.00;100974.66;5015037;28;20029;-77
2023/04/28 09:38:17;;;;;;;20.17;17.50;;;;;;;13.10;100.00;100988.56;5014893;28;20079;-80
2023/04/28 09:40:57;;;;;;;21.83;17.95;;;;;;;13.08;100.00;100995.63;4997264;28;20044;-77
2023/04/28 09:43:23;;;;;;;23.87;18.23;;;;;;;13.16;100.00;100995.06;5014562;28;20032;-75
2023/04/28 09:45:48;;;;;;;22.10;17.83;;;;;;;13.05;100.00;100949.16;4996854;28;20061;-81
2023/04/28 09:48:16;;;;;;;21.00;18.33;;;;;;;13.19;100.00;100954.22;4996787;28;20046;-80
2023/04/28 09:50:53;;;;;;;20.42;16.58;;;;;;;12.33;100.00;100813.53;5013615;28;20118;-77
2023/04/28 09:53:32;;;;;;;22.48;18.05;;;;;;;12.21;100.00;100791.91;5014788;28;20022;-78
2023/04/28 09:56:00;;;;;;;21.73;17.98;;;;;;;13.55;100.00;100977.59;5043846;23;20052;-78
2023/04/28 09:58:26;;;;;;;21.65;17.92;;;;;;;13.71;100.00;100993.72;5053828;28;20112;-80
2023/04/28 10:00:54;;;;;;;22.50;18.60;;;;;;;13.55;100.00;100968.03;5054310;28;20063;-76
2023/04/28 10:03:24;;;;;;;22.02;17.55;;;;;;;13.54;100.00;100952.59;5054306;28;20357;-77
2023/04/28 10:05:52;;;;;;;24.35;18.95;;;;;;;13.85;100.00;100998.69;5054207;28;20021;-79
2023/04/28 10:08:18;;;;;;;23.52;18.08;;;;;;;13.65;100.00;100943.06;5054106;28;20036;-80
2023/04/28 10:10:48;;;;;;;21.85;18.33;;;;;;;14.04;100.00;100987.78;5053722;28;20307;-80
2023/04/28 10:13:15;;;;;;;23.48;18.42;;;;;;;13.89;100.00;100956.00;5053536;28;20057;-81
2023/04/28 10:15:41;;;;;;;21.75;18.23;;;;;;;14.20;100.00;100997.84;5035855;28;20017;-81
2023/04/28 10:26:22;;;;;;;22.98;18.10;;;;;;;13.05;100.00;100811.75;5139701;23;20049;-82
2023/04/28 10:28:50;;;;;;;22.73;18.98;;;;;;;14.26;100.00;100997.41;5033724;28;20045;-84
2023/04/28 10:31:20;;;;;;;22.52;18.27;;;;;;;14.16;100.00;100976.47;5033801;28;20021;-87
2023/04/28 10:33:46;;;;;;;22.13;18.38;;;;;;;14.33;100.00;100981.19;5033715;28;20140;-87
2023/04/28 10:36:51;;;;;;;21.38;18.23;;;;;;;14.29;100.00;100966.81;5033745;28;20036;-80
2023/04/28 10:39:17;;;;;;;21.00;18.33;;;;;;;14.06;100.00;100955.56;5016040;28;20036;-84
2023/04/28 10:41:46;;;;;;;23.50;19.10;;;;;;;13.95;100.00;100971.09;5033527;28;20428;-86
2023/04/28 10:44:40;;;;;;;24.30;20.48;;;;;;;14.11;100.00;100996.75;5033344;28;20028;-87
2023/04/28 10:47:08;;;;;;;24.75;19.88;;;;;;;14.03;100.00;100994.75;5031353;28;20044;-84
2023/04/28 10:49:56;;;;;;;26.63;22.38;;;;;;;13.98;100.00;100989.06;5033528;28;20029;-81
2023/04/28 10:52:37;;;;;;;28.30;22.85;;;;;;;13.98;100.00;100985.66;5033510;28;20030;-83
2023/04/28 10:55:30;;;;;;;29.17;23.80;;;;;;;14.09;100.00;100993.47;5033242;28;20029;-76
2023/04/28 10:58:13;;;;;;;32.10;24.80;;;;;;;14.27;100.00;100989.47;5033273;28;20049;-81
2023/04/28 11:00:39;;;;;;;31.52;26.23;;;;;;;14.10;100.00;100950.16;5033258;28;20029;-81
2023/04/28 11:03:05;;;;;;;33.25;27.50;;;;;;;14.58;100.00;100990.59;5032474;28;20531;-81
2023/04/28 11:05:33;;;;;;;32.10;26.65;;;;;;;14.67;100.00;100991.66;5033113;28;20029;-80
2023/04/28 11:08:17;;;;;;;33.28;27.90;;;;;;;14.82;100.00;100982.66;5032819;28;20025;-81
2023/04/28 11:11:14;;;;;;;32.95;27.88;;;;;;;14.88;100.00;100983.94;5033069;28;20516;-83
2023/04/28 11:13:40;;;;;;;35.03;28.83;;;;;;;14.73;100.00;100987.75;5032771;28;20044;-81
2023/04/28 11:16:13;;;;;;;33.45;28.08;;;;;;;14.37;100.00;100955.00;5033109;28;20021;-80
2023/04/28 11:18:48;;;;;;;33.15;27.48;;;;;;;14.42;100.00;100981.44;5032956;28;20033;-81
2023/04/28 11:21:13;;;;;;;34.53;28.83;;;;;;;14.17;100.00;100972.94;5032971;28;20033;-80